Time;durP1;ratioP1;P1;durP2;ratioP2;P2;SDS_P1;SDS_P2;PMS_P1;PMS_P2;Temp;Humidity;BMP_temperature;BMP_pressure;BME280_temperature;BME280_humidity;BME280_pressure;Samples;Min_cycle;Max_cycle;Signal;HPM_P1;HPM_P2
2022/03/20 00:02:22;;;;;;;6.85;4.72;;;;;;;;;;4998963;28;91714;-73
2022/03/20 00:04:49;;;;;;;9.95;4.57;;;;;;;;;;4999771;28;93555;-73
2022/03/20 00:07:15;;;;;;;4.70;4.28;;;;;;;;;;4999976;28;93085;-74
2022/03/20 00:09:44;;;;;;;5.25;4.43;;;;;;;;;;4997901;28;94648;-77
2022/03/20 00:12:10;;;;;;;7.22;4.72;;;;;;;;;;4999409;28;95881;-73
2022/03/20 00:14:37;;;;;;;10.45;4.88;;;;;;;;;;4999559;28;93596;-74
2022/03/20 00:17:03;;;;;;;10.77;5.40;;;;;;;;;;5003010;28;92239;-75
2022/03/20 00:19:29;;;;;;;7.85;5.18;;;;;;;;;;4999352;28;93713;-74
2022/03/20 00:21:56;;;;;;;7.40;5.40;;;;;;;;;;4999858;28;92175;-74
2022/03/20 00:24:23;;;;;;;11.82;5.57;;;;;;;;;;4999444;28;93323;-74
2022/03/20 00:26:56;;;;;;;9.50;6.07;;;;;;;;;;4998782;28;94319;-73
2022/03/20 00:29:24;;;;;;;9.57;6.80;;;;;;;;;;4998444;28;92469;-76
2022/03/20 00:31:51;;;;;;;9.05;5.90;;;;;;;;;;4998044;28;92906;-75
2022/03/20 00:34:17;;;;;;;6.90;6.15;;;;;;;;;;4997451;28;96106;-75
2022/03/20 00:36:43;;;;;;;10.45;6.53;;;;;;;;;;4998829;28;92272;-75
2022/03/20 00:39:10;;;;;;;10.13;7.43;;;;;;;;;;5002025;28;93918;-75
2022/03/20 00:41:36;;;;;;;9.02;6.57;;;;;;;;;;4999478;28;92300;-74
2022/03/20 00:44:03;;;;;;;8.93;7.00;;;;;;;;;;4999226;28;93365;-75
2022/03/20 00:46:29;;;;;;;10.57;7.53;;;;;;;;;;4999280;28;93975;-74
2022/03/20 00:48:56;;;;;;;10.43;7.40;;;;;;;;;;4999193;28;92257;-74
2022/03/20 00:51:22;;;;;;;9.50;7.38;;;;;;;;;;5002463;28;93233;-73
2022/03/20 00:53:50;;;;;;;15.20;8.13;;;;;;;;;;5003777;28;92996;-76
2022/03/20 00:56:16;;;;;;;10.82;7.63;;;;;;;;;;4999434;28;92159;-74
2022/03/20 00:58:43;;;;;;;12.45;8.43;;;;;;;;;;4997619;28;94733;-74
2022/03/20 01:01:10;;;;;;;13.55;8.20;;;;;;;;;;5001126;28;93858;-74
2022/03/20 01:03:38;;;;;;;9.38;7.75;;;;;;;;;;4999124;28;93736;-73
2022/03/20 01:06:07;;;;;;;10.43;8.38;;;;;;;;;;4998177;28;96802;-76
2022/03/20 01:08:34;;;;;;;14.45;8.30;;;;;;;;;;5000660;28;92206;-75
2022/03/20 01:11:02;;;;;;;11.60;8.75;;;;;;;;;;4999378;28;93190;-75
2022/03/20 01:13:29;;;;;;;9.98;8.60;;;;;;;;;;4998578;28;94422;-74
2022/03/20 01:15:56;;;;;;;12.57;8.90;;;;;;;;;;4999704;28;91598;-74
2022/03/20 01:18:24;;;;;;;13.80;8.65;;;;;;;;;;4999413;28;92279;-73
2022/03/20 01:20:51;;;;;;;13.98;8.70;;;;;;;;;;5001626;28;93545;-74
2022/03/20 01:23:17;;;;;;;12.60;9.82;;;;;;;;;;4997366;28;94765;-75
2022/03/20 01:25:43;;;;;;;14.00;9.38;;;;;;;;;;4998556;28;93202;-73
2022/03/20 01:28:10;;;;;;;11.60;8.40;;;;;;;;;;4998590;28;92403;-74
2022/03/20 01:30:36;;;;;;;12.07;8.65;;;;;;;;;;4998763;28;92978;-74
2022/03/20 01:33:03;;;;;;;11.38;8.38;;;;;;;;;;4998588;28;92850;-73
2022/03/20 01:35:29;;;;;;;13.82;8.82;;;;;;;;;;4998003;28;92344;-75
2022/03/20 01:37:56;;;;;;;14.77;8.30;;;;;;;;;;4998572;28;93287;-74
2022/03/20 01:40:22;;;;;;;12.18;8.90;;;;;;;;;;4998881;28;93071;-74
2022/03/20 01:42:48;;;;;;;10.88;7.72;;;;;;;;;;5001291;28;92277;-74
2022/03/20 01:45:16;;;;;;;12.68;8.82;;;;;;;;;;4998324;28;92954;-74
2022/03/20 01:47:43;;;;;;;12.57;8.15;;;;;;;;;;4996695;28;94674;-74
2022/03/20 01:50:09;;;;;;;9.48;8.35;;;;;;;;;;4997743;28;95284;-74
2022/03/20 01:52:35;;;;;;;13.05;8.77;;;;;;;;;;4998223;28;93747;-75
2022/03/20 01:55:02;;;;;;;12.77;8.98;;;;;;;;;;4998243;28;92445;-75
2022/03/20 01:57:36;;;;;;;10.82;7.38;;;;;;;;;;4996338;28;94100;-74
2022/03/20 02:00:03;;;;;;;10.60;8.00;;;;;;;;;;4997947;28;94330;-76
2022/03/20 02:02:37;;;;;;;12.85;8.30;;;;;;;;;;4997692;28;93221;-75
2022/03/20 02:05:06;;;;;;;13.07;8.43;;;;;;;;;;5001246;28;93242;-76
2022/03/20 02:07:34;;;;;;;13.25;7.60;;;;;;;;;;4997926;28;91986;-74
2022/03/20 02:10:01;;;;;;;16.20;8.10;;;;;;;;;;4997821;28;93617;-74
2022/03/20 02:12:28;;;;;;;11.73;7.50;;;;;;;;;;4995719;28;95906;-75
2022/03/20 02:14:55;;;;;;;11.70;8.10;;;;;;;;;;4997727;28;92349;-75
2022/03/20 02:17:22;;;;;;;13.27;8.05;;;;;;;;;;4997650;28;93963;-74
2022/03/20 02:19:48;;;;;;;9.90;7.00;;;;;;;;;;4997643;28;94381;-75
2022/03/20 02:22:14;;;;;;;10.60;7.40;;;;;;;;;;4996468;28;92399;-75
2022/03/20 02:24:42;;;;;;;12.98;7.15;;;;;;;;;;4998073;28;93372;-74
2022/03/20 02:27:17;;;;;;;9.85;6.60;;;;;;;;;;5000797;28;93677;-75
2022/03/20 02:29:53;;;;;;;13.57;7.57;;;;;;;;;;4997037;28;93035;-75
2022/03/20 02:32:23;;;;;;;9.07;6.68;;;;;;;;;;4997796;28;93495;-74
2022/03/20 02:34:50;;;;;;;10.35;7.47;;;;;;;;;;4997874;28;92161;-75
2022/03/20 02:37:18;;;;;;;10.13;7.05;;;;;;;;;;4996157;28;94813;-76
2022/03/20 02:39:45;;;;;;;13.57;6.65;;;;;;;;;;4997554;28;93636;-75
2022/03/20 02:42:13;;;;;;;12.73;7.85;;;;;;;;;;4997064;28;92235;-74
2022/03/20 02:44:49;;;;;;;13.05;8.18;;;;;;;;;;4997394;28;93405;-74
2022/03/20 02:47:20;;;;;;;16.92;7.25;;;;;;;;;;4997315;28;93637;-75
2022/03/20 02:49:49;;;;;;;16.00;7.68;;;;;;;;;;4999850;28;92409;-76
2022/03/20 02:52:15;;;;;;;12.02;8.23;;;;;;;;;;4997449;28;93230;-74
2022/03/20 02:54:43;;;;;;;11.93;8.25;;;;;;;;;;4997420;28;91532;-76
2022/03/20 02:57:09;;;;;;;12.82;8.13;;;;;;;;;;4997359;28;93083;-74
2022/03/20 02:59:35;;;;;;;11.90;8.40;;;;;;;;;;4996994;28;93692;-75
2022/03/20 03:02:02;;;;;;;11.43;7.60;;;;;;;;;;5001167;28;94720;-74
2022/03/20 03:04:30;;;;;;;13.65;8.65;;;;;;;;;;4983081;28;95791;-74
2022/03/20 03:07:00;;;;;;;17.25;9.15;;;;;;;;;;4996066;28;93563;-75
2022/03/20 03:12:12;;;;;;;14.90;8.88;;;;;;;;;;5000019;28;93803;-74
2022/03/20 03:17:29;;;;;;;9.35;7.45;;;;;;;;;;4996911;28;93795;-73
2022/03/20 03:19:56;;;;;;;16.83;9.05;;;;;;;;;;4997134;28;93112;-75
2022/03/20 03:22:26;;;;;;;12.95;9.25;;;;;;;;;;4997013;28;92270;-75
2022/03/20 03:24:53;;;;;;;12.30;9.27;;;;;;;;;;4997973;28;93880;-75
2022/03/20 03:27:20;;;;;;;12.15;8.27;;;;;;;;;;4998634;28;95821;-74
2022/03/20 03:29:46;;;;;;;13.00;7.88;;;;;;;;;;5000568;28;92283;-73
2022/03/20 03:32:13;;;;;;;15.10;9.90;;;;;;;;;;5003131;28;93257;-73
2022/03/20 03:37:25;;;;;;;15.63;9.02;;;;;;;;;;4998627;28;94268;-74
2022/03/20 03:39:51;;;;;;;18.45;9.73;;;;;;;;;;5000116;28;93592;-73
2022/03/20 03:42:19;;;;;;;14.43;9.85;;;;;;;;;;5000350;28;92285;-74
2022/03/20 03:44:49;;;;;;;15.07;9.13;;;;;;;;;;5000249;28;93463;-75
2022/03/20 03:47:15;;;;;;;18.27;9.68;;;;;;;;;;5000026;28;93829;-74
2022/03/20 03:49:41;;;;;;;19.25;11.02;;;;;;;;;;5000468;28;92158;-75
2022/03/20 03:52:08;;;;;;;13.02;10.18;;;;;;;;;;4997921;28;94685;-76
2022/03/20 03:54:34;;;;;;;17.60;10.43;;;;;;;;;;5002297;28;93785;-75
2022/03/20 03:57:00;;;;;;;14.00;9.27;;;;;;;;;;4999545;28;93349;-74
2022/03/20 03:59:27;;;;;;;14.70;10.75;;;;;;;;;;4999307;28;93771;-74
2022/03/20 04:01:54;;;;;;;21.23;12.30;;;;;;;;;;4999331;28;92296;-75
2022/03/20 04:04:21;;;;;;;15.68;11.27;;;;;;;;;;4999361;28;93452;-75
2022/03/20 04:06:47;;;;;;;14.65;11.13;;;;;;;;;;4998974;28;94988;-76
2022/03/20 04:09:14;;;;;;;18.15;11.50;;;;;;;;;;4999743;28;91604;-75
2022/03/20 04:11:40;;;;;;;19.50;11.77;;;;;;;;;;4998989;28;92686;-75
2022/03/20 04:14:07;;;;;;;17.17;10.80;;;;;;;;;;4997727;28;93709;-75
2022/03/20 04:16:33;;;;;;;15.00;11.65;;;;;;;;;;4999609;28;94753;-75
2022/03/20 04:19:00;;;;;;;18.13;12.10;;;;;;;;;;4998830;28;94007;-74
2022/03/20 04:21:26;;;;;;;16.30;11.48;;;;;;;;;;4998544;28;92366;-75
2022/03/20 04:23:53;;;;;;;16.52;11.65;;;;;;;;;;4998854;28;93078;-75
2022/03/20 04:26:20;;;;;;;17.23;11.75;;;;;;;;;;4998821;28;93193;-76
2022/03/20 04:28:47;;;;;;;22.50;11.38;;;;;;;;;;4998679;28;92347;-75
2022/03/20 04:31:15;;;;;;;23.20;12.27;;;;;;;;;;4999042;28;94076;-75
2022/03/20 04:33:45;;;;;;;19.35;11.32;;;;;;;;;;4999316;28;92388;-75
2022/03/20 04:36:12;;;;;;;22.77;12.85;;;;;;;;;;4998672;28;92272;-74
2022/03/20 04:38:38;;;;;;;17.35;12.07;;;;;;;;;;5001531;28;93393;-74
2022/03/20 04:41:04;;;;;;;16.65;12.23;;;;;;;;;;4996592;28;94712;-74
2022/03/20 04:43:31;;;;;;;19.02;11.88;;;;;;;;;;4998199;28;95780;-75
2022/03/20 04:45:58;;;;;;;19.83;13.00;;;;;;;;;;4998599;28;92992;-76
2022/03/20 04:59:26;;;;;;;18.90;11.90;;;;;;;;;;4998674;28;93600;-76
2022/03/20 05:01:57;;;;;;;20.35;13.43;;;;;;;;;;5000923;28;93492;-74
2022/03/20 05:04:24;;;;;;;23.30;13.43;;;;;;;;;;4997245;28;94411;-75
2022/03/20 05:06:52;;;;;;;22.55;13.68;;;;;;;;;;4996795;28;95694;-75
2022/03/20 05:14:49;;;;;;;28.17;13.55;;;;;;;;;;4998441;28;92948;-75
2022/03/20 05:17:16;;;;;;;23.50;13.73;;;;;;;;;;4998261;28;92394;-76
2022/03/20 05:19:42;;;;;;;18.63;14.07;;;;;;;;;;4998056;28;93393;-75
2022/03/20 05:22:12;;;;;;;21.50;13.43;;;;;;;;;;4998050;28;93644;-75
2022/03/20 05:24:39;;;;;;;24.90;13.05;;;;;;;;;;5001297;28;91538;-75
2022/03/20 05:27:06;;;;;;;24.92;14.23;;;;;;;;;;4997501;28;93573;-74
2022/03/20 05:29:33;;;;;;;21.63;12.25;;;;;;;;;;4997878;28;92232;-75
2022/03/20 05:32:03;;;;;;;22.98;14.10;;;;;;;;;;4996226;28;94745;-73
2022/03/20 05:34:32;;;;;;;21.13;14.70;;;;;;;;;;4997652;28;93458;-73
2022/03/20 05:36:59;;;;;;;23.98;14.82;;;;;;;;;;4997989;28;92281;-73
2022/03/20 05:39:26;;;;;;;21.58;13.63;;;;;;;;;;4997188;28;93736;-75
2022/03/20 05:41:52;;;;;;;21.85;14.45;;;;;;;;;;4997507;28;93814;-73
2022/03/20 05:44:20;;;;;;;25.77;15.80;;;;;;;;;;5000660;28;92341;-75
2022/03/20 05:46:48;;;;;;;23.42;14.73;;;;;;;;;;4997281;28;93580;-75
2022/03/20 05:49:15;;;;;;;25.60;13.77;;;;;;;;;;4997339;28;91400;-73
2022/03/20 05:51:42;;;;;;;25.25;14.88;;;;;;;;;;4997367;28;92843;-73
2022/03/20 05:54:09;;;;;;;22.60;14.93;;;;;;;;;;4996597;28;93478;-74
2022/03/20 05:59:21;;;;;;;21.75;13.50;;;;;;;;;;4997024;28;96029;-74
2022/03/20 06:01:50;;;;;;;23.30;16.10;;;;;;;;;;4995818;28;94970;-74
2022/03/20 06:04:17;;;;;;;24.50;14.63;;;;;;;;;;4997283;28;93217;-74
2022/03/20 06:06:43;;;;;;;25.42;15.02;;;;;;;;;;4999522;28;93407;-75
2022/03/20 06:09:10;;;;;;;21.42;12.68;;;;;;;;;;4996954;28;92303;-74
2022/03/20 06:11:36;;;;;;;24.88;15.25;;;;;;;;;;4996800;28;92931;-76
2022/03/20 06:14:03;;;;;;;20.88;14.73;;;;;;;;;;4997128;28;93243;-74
2022/03/20 06:16:30;;;;;;;26.90;15.80;;;;;;;;;;4995648;28;92276;-77
2022/03/20 06:18:57;;;;;;;27.25;14.32;;;;;;;;;;4996537;28;93765;-75
2022/03/20 06:21:25;;;;;;;24.92;13.77;;;;;;;;;;4994864;28;95871;-73
2022/03/20 06:23:54;;;;;;;19.88;14.73;;;;;;;;;;4996722;28;92239;-74
2022/03/20 06:26:21;;;;;;;23.13;15.57;;;;;;;;;;4997281;28;92497;-73
2022/03/20 06:28:48;;;;;;;25.63;15.52;;;;;;;;;;4999944;28;93218;-73
2022/03/20 06:31:15;;;;;;;24.73;15.70;;;;;;;;;;4996514;28;92525;-75
2022/03/20 06:33:55;;;;;;;19.73;15.10;;;;;;;;;;4996604;28;92690;-73
2022/03/20 06:36:22;;;;;;;26.17;16.45;;;;;;;;;;4996633;28;92260;-73
2022/03/20 06:38:48;;;;;;;24.67;14.27;;;;;;;;;;4995966;28;96347;-73
2022/03/20 06:41:15;;;;;;;26.40;15.20;;;;;;;;;;4996700;28;93569;-72
2022/03/20 06:43:41;;;;;;;27.63;15.55;;;;;;;;;;4996425;28;92378;-74
2022/03/20 06:46:07;;;;;;;27.23;16.38;;;;;;;;;;4995018;28;94650;-74
2022/03/20 06:48:50;;;;;;;17.23;13.23;;;;;;;;;;4995131;28;94449;-74
2022/03/20 06:51:17;;;;;;;30.08;16.48;;;;;;;;;;4999616;28;92423;-72
2022/03/20 06:53:44;;;;;;;29.60;16.63;;;;;;;;;;4996645;28;93502;-74
2022/03/20 06:56:10;;;;;;;25.55;16.23;;;;;;;;;;4996693;28;92265;-73
2022/03/20 06:58:36;;;;;;;25.08;16.63;;;;;;;;;;4996050;28;93455;-74
2022/03/20 07:01:03;;;;;;;24.67;16.08;;;;;;;;;;4995191;28;93531;-73
2022/03/20 07:03:29;;;;;;;25.92;16.67;;;;;;;;;;4997203;28;91551;-73
2022/03/20 07:05:56;;;;;;;22.10;14.80;;;;;;;;;;4996417;28;93045;-74
2022/03/20 07:08:22;;;;;;;23.98;16.85;;;;;;;;;;4996059;28;93696;-73
2022/03/20 07:10:49;;;;;;;29.73;16.40;;;;;;;;;;4994450;28;94667;-73
2022/03/20 07:16:01;;;;;;;25.80;16.23;;;;;;;;;;4995883;28;92202;-75
2022/03/20 07:18:27;;;;;;;27.75;17.33;;;;;;;;;;4995813;28;93789;-74
2022/03/20 07:20:55;;;;;;;30.35;17.75;;;;;;;;;;4998501;28;93452;-74
2022/03/20 07:23:22;;;;;;;23.77;16.60;;;;;;;;;;5001158;28;92464;-74
2022/03/20 07:31:18;;;;;;;22.80;16.95;;;;;;;;;;4995827;28;92277;-75
2022/03/20 07:33:45;;;;;;;24.92;16.05;;;;;;;;;;4998970;28;93754;-74
2022/03/20 07:36:12;;;;;;;24.33;17.20;;;;;;;;;;4993914;28;95554;-75
2022/03/20 07:38:39;;;;;;;25.60;17.25;;;;;;;;;;4995536;28;95850;-74
2022/03/20 07:41:05;;;;;;;25.25;16.75;;;;;;;;;;4995379;28;94428;-76
2022/03/20 07:43:31;;;;;;;25.65;16.33;;;;;;;;;;4995618;28;92340;-75
2022/03/20 07:45:58;;;;;;;26.35;17.63;;;;;;;;;;4996048;28;93587;-72
2022/03/20 07:48:24;;;;;;;27.00;17.70;;;;;;;;;;4995711;28;93603;-74
2022/03/20 07:50:50;;;;;;;32.05;19.23;;;;;;;;;;4995535;28;92310;-77
2022/03/20 07:53:17;;;;;;;25.55;17.58;;;;;;;;;;4996188;28;92742;-75
2022/03/20 07:55:45;;;;;;;30.10;19.38;;;;;;;;;;4998893;28;93190;-75
2022/03/20 07:58:12;;;;;;;27.13;17.65;;;;;;;;;;4995892;28;93831;-75
2022/03/20 08:00:39;;;;;;;27.95;17.05;;;;;;;;;;4993951;28;96215;-74
2022/03/20 08:03:06;;;;;;;29.52;18.60;;;;;;;;;;4994513;28;93002;-71
2022/03/20 08:05:32;;;;;;;24.50;14.70;;;;;;;;;;4994862;28;95146;-73
2022/03/20 08:08:02;;;;;;;29.77;18.95;;;;;;;;;;4995618;28;93929;-73
2022/03/20 08:10:29;;;;;;;27.73;18.40;;;;;;;;;;4996098;28;92428;-73
2022/03/20 08:12:55;;;;;;;22.80;15.23;;;;;;;;;;4998362;28;93484;-74
2022/03/20 08:15:22;;;;;;;33.15;19.20;;;;;;;;;;4999113;28;93630;-74
2022/03/20 08:17:51;;;;;;;28.25;18.90;;;;;;;;;;5002969;28;91324;-74
2022/03/20 08:20:17;;;;;;;30.40;16.65;;;;;;;;;;5001162;28;94194;-72
2022/03/20 08:22:44;;;;;;;26.50;18.52;;;;;;;;;;4998532;28;92295;-75
2022/03/20 08:25:10;;;;;;;29.13;19.13;;;;;;;;;;4996569;28;94612;-74
2022/03/20 08:27:44;;;;;;;27.60;17.40;;;;;;;;;;4998658;28;93190;-74
2022/03/20 08:30:11;;;;;;;25.67;18.52;;;;;;;;;;4998268;28;92211;-74
2022/03/20 08:32:38;;;;;;;27.20;18.70;;;;;;;;;;4998711;28;93298;-74
2022/03/20 08:35:05;;;;;;;26.65;19.23;;;;;;;;;;4998310;28;94419;-74
2022/03/20 08:37:32;;;;;;;31.35;19.88;;;;;;;;;;4998754;28;92189;-74
2022/03/20 08:39:58;;;;;;;27.55;19.52;;;;;;;;;;5001561;28;93235;-72
2022/03/20 08:42:24;;;;;;;32.50;19.65;;;;;;;;;;4999087;28;91643;-75
2022/03/20 08:44:52;;;;;;;27.48;17.90;;;;;;;;;;4997553;28;92868;-74
2022/03/20 08:47:19;;;;;;;29.45;20.40;;;;;;;;;;4998743;28;94059;-74
2022/03/20 08:49:46;;;;;;;30.50;20.35;;;;;;;;;;4995705;28;94771;-75
2022/03/20 08:52:12;;;;;;;27.25;19.42;;;;;;;;;;4998108;28;95833;-74
2022/03/20 08:54:38;;;;;;;27.58;19.13;;;;;;;;;;4998200;28;94825;-73
2022/03/20 08:57:06;;;;;;;31.17;19.88;;;;;;;;;;4998448;28;92252;-74
2022/03/20 08:59:32;;;;;;;29.63;20.17;;;;;;;;;;4997673;28;93929;-74
2022/03/20 09:01:59;;;;;;;35.97;21.13;;;;;;;;;;5000712;28;94600;-74
2022/03/20 09:04:25;;;;;;;29.95;18.13;;;;;;;;;;4998219;28;92862;-75
2022/03/20 09:06:51;;;;;;;32.00;20.92;;;;;;;;;;4998327;28;92392;-75
2022/03/20 09:09:18;;;;;;;34.08;20.08;;;;;;;;;;4996615;28;93335;-74
2022/03/20 09:11:45;;;;;;;34.00;20.45;;;;;;;;;;4997853;28;93761;-76
2022/03/20 09:14:11;;;;;;;33.88;20.63;;;;;;;;;;4995959;28;97918;-79
2022/03/20 09:19:23;;;;;;;33.28;20.88;;;;;;;;;;4997758;28;94113;-75
2022/03/20 09:21:49;;;;;;;32.17;20.98;;;;;;;;;;4997469;28;93846;-75
2022/03/20 09:24:15;;;;;;;33.47;22.10;;;;;;;;;;5000318;28;92313;-74
2022/03/20 09:26:42;;;;;;;34.45;20.33;;;;;;;;;;4997806;28;93595;-76
2022/03/20 09:29:09;;;;;;;31.08;20.30;;;;;;;;;;4998004;28;92325;-75
2022/03/20 09:31:35;;;;;;;32.08;21.33;;;;;;;;;;5003497;28;93592;-76
2022/03/20 09:34:07;;;;;;;35.15;21.08;;;;;;;;;;5003031;28;93300;-74
2022/03/20 09:36:36;;;;;;;32.10;22.13;;;;;;;;;;4996497;28;92925;-73
2022/03/20 09:39:02;;;;;;;36.05;22.27;;;;;;;;;;4995601;28;94648;-73
2022/03/20 09:41:32;;;;;;;31.92;22.83;;;;;;;;;;4996936;28;93808;-75
2022/03/20 09:44:02;;;;;;;38.85;21.42;;;;;;;;;;4999591;28;92571;-76
2022/03/20 09:46:30;;;;;;;32.25;21.23;;;;;;;;;;4996222;28;93228;-76
2022/03/20 09:48:57;;;;;;;30.83;20.90;;;;;;;;;;4996812;28;92324;-78
2022/03/20 09:51:24;;;;;;;40.05;22.67;;;;;;;;;;4996960;28;93172;-73
2022/03/20 09:53:50;;;;;;;33.45;22.10;;;;;;;;;;4996091;28;93232;-76
2022/03/20 09:56:16;;;;;;;34.40;22.05;;;;;;;;;;4997264;28;91511;-76
2022/03/20 09:58:43;;;;;;;35.47;21.83;;;;;;;;;;4996571;28;93043;-73
2022/03/20 10:01:09;;;;;;;34.28;21.90;;;;;;;;;;4997805;28;93509;-75
2022/03/20 10:03:36;;;;;;;32.17;21.15;;;;;;;;;;4995092;28;94765;-74
2022/03/20 10:06:14;;;;;;;40.72;22.77;;;;;;;;;;4999780;28;95359;-74
2022/03/20 10:08:56;;;;;;;34.78;22.55;;;;;;;;;;4996686;28;92302;-75
2022/03/20 10:11:23;;;;;;;32.45;22.85;;;;;;;;;;4994533;28;92988;-74
2022/03/20 10:14:09;;;;;;;34.88;22.38;;;;;;;;;;4996562;28;93758;-76
2022/03/20 10:16:38;;;;;;;32.30;21.85;;;;;;;;;;4995646;28;92435;-73
2022/03/20 10:19:24;;;;;;;36.38;22.33;;;;;;;;;;4996393;28;94300;-73
2022/03/20 10:21:58;;;;;;;34.25;22.17;;;;;;;;;;4994922;28;92276;-73
2022/03/20 10:24:26;;;;;;;32.90;22.55;;;;;;;;;;4996369;28;92215;-75
2022/03/20 10:27:02;;;;;;;33.67;22.08;;;;;;;;;;4995813;28;94512;-76
2022/03/20 10:29:34;;;;;;;33.55;21.80;;;;;;;;;;4997802;28;95897;-76
2022/03/20 10:32:01;;;;;;;38.15;24.65;;;;;;;;;;4994466;28;95138;-75
2022/03/20 10:34:28;;;;;;;32.20;23.73;;;;;;;;;;4994748;28;93395;-74
2022/03/20 10:36:55;;;;;;;39.20;23.73;;;;;;;;;;4995187;28;92386;-75
2022/03/20 10:39:25;;;;;;;36.00;24.17;;;;;;;;;;4994615;28;93473;-75
2022/03/20 10:41:53;;;;;;;33.30;22.20;;;;;;;;;;4995438;28;93844;-74
2022/03/20 10:44:31;;;;;;;37.10;24.75;;;;;;;;;;4994749;28;92619;-77
2022/03/20 10:47:04;;;;;;;33.05;24.08;;;;;;;;;;4995387;28;94205;-75
2022/03/20 10:49:32;;;;;;;34.70;23.52;;;;;;;;;;4995182;28;93111;-76
2022/03/20 10:52:09;;;;;;;36.92;24.05;;;;;;;;;;4998964;28;92377;-75
2022/03/20 10:54:43;;;;;;;34.40;23.25;;;;;;;;;;4994152;28;96161;-75
2022/03/20 10:57:11;;;;;;;35.42;24.10;;;;;;;;;;4995178;28;92444;-73
2022/03/20 10:59:40;;;;;;;34.78;24.48;;;;;;;;;;4995787;28;93630;-75
2022/03/20 11:02:19;;;;;;;36.97;23.98;;;;;;;;;;4995664;28;93131;-73
2022/03/20 11:04:46;;;;;;;38.85;25.65;;;;;;;;;;4992678;28;92285;-70
2022/03/20 11:07:16;;;;;;;34.25;24.27;;;;;;;;;;4994807;28;93766;-74
2022/03/20 11:09:49;;;;;;;33.53;24.35;;;;;;;;;;4991895;28;93522;-76
2022/03/20 11:12:24;;;;;;;35.58;24.88;;;;;;;;;;4992783;28;91563;-74
2022/03/20 11:14:51;;;;;;;37.15;24.95;;;;;;;;;;4999109;28;92390;-73
2022/03/20 11:17:19;;;;;;;35.65;24.20;;;;;;;;;;4995563;28;93330;-74
2022/03/20 11:19:49;;;;;;;40.88;25.02;;;;;;;;;;4994253;28;94853;-71
2022/03/20 11:22:18;;;;;;;38.70;24.98;;;;;;;;;;4991647;28;93595;-76
2022/03/20 11:24:45;;;;;;;35.33;25.45;;;;;;;;;;4987009;28;92276;-74
2022/03/20 11:27:14;;;;;;;36.92;24.77;;;;;;;;;;4991267;28;93772;-75
2022/03/20 11:29:47;;;;;;;39.72;26.38;;;;;;;;;;4991981;28;93919;-74
2022/03/20 11:32:14;;;;;;;38.53;26.20;;;;;;;;;;4986705;28;92390;-74
2022/03/20 11:34:42;;;;;;;45.17;28.48;;;;;;;;;;4995080;28;93457;-74
2022/03/20 11:37:09;;;;;;;38.72;26.77;;;;;;;;;;4998597;28;92799;-73
2022/03/20 11:39:37;;;;;;;36.63;25.92;;;;;;;;;;4997615;28;92432;-75
2022/03/20 11:42:19;;;;;;;36.70;25.95;;;;;;;;;;5000117;28;93488;-76
2022/03/20 11:45:07;;;;;;;40.08;26.88;;;;;;;;;;4989890;28;94804;-75
2022/03/20 11:47:38;;;;;;;37.15;26.70;;;;;;;;;;4996048;28;96092;-76
2022/03/20 11:50:15;;;;;;;38.38;26.83;;;;;;;;;;4997381;28;94052;-77
2022/03/20 11:52:49;;;;;;;39.63;26.85;;;;;;;;;;4998816;28;92255;-75
2022/03/20 11:55:34;;;;;;;42.35;26.40;;;;;;;;;;4998887;28;93303;-76
2022/03/20 11:58:05;;;;;;;40.08;28.13;;;;;;;;;;4998330;28;94076;-75
2022/03/20 12:00:33;;;;;;;43.83;27.80;;;;;;;;;;4995587;28;93507;-76
2022/03/20 12:03:09;;;;;;;40.75;29.05;;;;;;;;;;4998856;28;93960;-75
2022/03/20 12:05:38;;;;;;;42.03;28.55;;;;;;;;;;4995792;28;92451;-75
2022/03/20 12:08:14;;;;;;;36.90;27.45;;;;;;;;;;4997518;28;93549;-76
2022/03/20 12:10:56;;;;;;;39.50;28.13;;;;;;;;;;4996859;28;94824;-75
2022/03/20 12:13:23;;;;;;;37.97;27.45;;;;;;;;;;4997979;28;92382;-77
2022/03/20 12:15:51;;;;;;;40.67;28.20;;;;;;;;;;4998551;28;93885;-76
2022/03/20 12:18:17;;;;;;;39.33;27.17;;;;;;;;;;4997561;28;94466;-77
2022/03/20 12:20:52;;;;;;;37.33;27.55;;;;;;;;;;5001299;28;93119;-76
2022/03/20 12:23:32;;;;;;;38.97;27.50;;;;;;;;;;4999349;28;93593;-76
2022/03/20 12:26:18;;;;;;;45.15;27.58;;;;;;;;;;4998368;28;92464;-77
2022/03/20 12:28:44;;;;;;;45.80;28.23;;;;;;;;;;4998577;28;93033;-77
2022/03/20 12:31:11;;;;;;;39.08;27.38;;;;;;;;;;4997581;28;93810;-76
2022/03/20 12:33:37;;;;;;;38.75;27.50;;;;;;;;;;4992925;28;92656;-78
2022/03/20 12:36:25;;;;;;;35.80;27.88;;;;;;;;;;4996617;28;94948;-74
2022/03/20 12:38:52;;;;;;;41.65;28.30;;;;;;;;;;4996171;28;93362;-75
2022/03/20 12:41:20;;;;;;;38.80;28.35;;;;;;;;;;4997806;28;92465;-79
2022/03/20 12:43:58;;;;;;;37.35;27.98;;;;;;;;;;5000226;28;94151;-74
2022/03/20 12:46:24;;;;;;;39.83;28.63;;;;;;;;;;4998621;28;92234;-74
2022/03/20 12:48:52;;;;;;;46.03;28.63;;;;;;;;;;4998541;28;93442;-74
2022/03/20 12:51:29;;;;;;;40.22;29.80;;;;;;;;;;4997187;28;94599;-73
2022/03/20 12:53:57;;;;;;;43.08;30.23;;;;;;;;;;4998353;28;92173;-72
2022/03/20 12:56:28;;;;;;;39.63;28.73;;;;;;;;;;4998395;28;92831;-76
2022/03/20 12:58:57;;;;;;;37.97;29.23;;;;;;;;;;4997526;28;94713;-76
2022/03/20 13:01:26;;;;;;;46.22;28.48;;;;;;;;;;4996681;28;94598;-77
2022/03/20 13:03:52;;;;;;;42.40;30.45;;;;;;;;;;4998405;28;95336;-77
2022/03/20 13:06:18;;;;;;;39.83;28.65;;;;;;;;;;5001273;28;93745;-75
2022/03/20 13:08:45;;;;;;;39.20;28.52;;;;;;;;;;4997855;28;93365;-76
2022/03/20 13:14:14;;;;;;;39.35;29.33;;;;;;;;;;4998090;28;92334;-76
2022/03/20 13:16:54;;;;;;;41.55;30.13;;;;;;;;;;4998298;28;93000;-75
2022/03/20 13:19:24;;;;;;;41.28;29.50;;;;;;;;;;4997947;28;93745;-76
2022/03/20 13:21:51;;;;;;;38.08;28.65;;;;;;;;;;4997795;28;92330;-75
2022/03/20 13:24:27;;;;;;;40.13;30.00;;;;;;;;;;4997719;28;93920;-74
2022/03/20 13:26:57;;;;;;;40.40;30.35;;;;;;;;;;4996060;28;95858;-73
2022/03/20 13:29:24;;;;;;;43.58;29.40;;;;;;;;;;5000906;28;92509;-75
2022/03/20 13:32:08;;;;;;;43.13;30.13;;;;;;;;;;4997722;28;93578;-74
2022/03/20 13:34:40;;;;;;;42.30;30.25;;;;;;;;;;4997281;28;92382;-75
2022/03/20 13:37:08;;;;;;;44.30;32.05;;;;;;;;;;4999648;28;93438;-76
2022/03/20 13:39:35;;;;;;;43.33;30.55;;;;;;;;;;4998942;28;92909;-74
2022/03/20 13:42:11;;;;;;;47.75;31.42;;;;;;;;;;4996158;28;93138;-77
2022/03/20 13:44:38;;;;;;;40.78;28.80;;;;;;;;;;4991744;28;96096;-76
2022/03/20 13:47:05;;;;;;;44.90;29.45;;;;;;;;;;4999529;28;93054;-74
2022/03/20 13:49:31;;;;;;;43.05;28.80;;;;;;;;;;5004746;28;92243;-76
2022/03/20 13:51:57;;;;;;;44.25;30.05;;;;;;;;;;4998744;28;94799;-75
2022/03/20 13:54:24;;;;;;;43.53;30.48;;;;;;;;;;4996170;28;92439;-75
2022/03/20 13:57:10;;;;;;;41.85;30.08;;;;;;;;;;4996976;28;93339;-75
2022/03/20 14:00:07;;;;;;;44.50;29.67;;;;;;;;;;4996837;28;93285;-74
2022/03/20 14:02:39;;;;;;;40.53;28.80;;;;;;;;;;4986591;28;93212;-75
2022/03/20 14:05:10;;;;;;;41.13;29.30;;;;;;;;;;4995858;28;95107;-75
2022/03/20 14:07:37;;;;;;;40.90;29.30;;;;;;;;;;4996828;28;94179;-76
2022/03/20 14:10:17;;;;;;;41.17;28.60;;;;;;;;;;4997151;28;91615;-77
2022/03/20 14:12:43;;;;;;;40.97;26.40;;;;;;;;;;4999527;28;93006;-75
2022/03/20 14:15:11;;;;;;;36.15;26.58;;;;;;;;;;4996067;28;92351;-73
2022/03/20 14:17:42;;;;;;;38.10;28.48;;;;;;;;;;4993659;28;95808;-73
2022/03/20 14:20:10;;;;;;;37.03;27.08;;;;;;;;;;4996333;28;93105;-75
2022/03/20 14:22:43;;;;;;;39.33;27.50;;;;;;;;;;4996073;28;92254;-75
2022/03/20 14:25:11;;;;;;;38.75;27.08;;;;;;;;;;4995949;28;93964;-74
2022/03/20 14:27:39;;;;;;;39.00;26.20;;;;;;;;;;4996569;28;92562;-74
2022/03/20 14:41:25;;;;;;;27.95;21.02;;;;;;;;;;4991814;28;93690;-74
2022/03/20 14:44:03;;;;;;;29.08;21.98;;;;;;;;;;4991551;28;95733;-74
2022/03/20 14:46:30;;;;;;;27.90;20.40;;;;;;;;;;4991561;28;97121;-75
2022/03/20 14:48:58;;;;;;;28.95;20.67;;;;;;;;;;4992002;28;94708;-75
2022/03/20 14:51:25;;;;;;;28.80;20.52;;;;;;;;;;5000976;28;92363;-76
2022/03/20 14:53:51;;;;;;;28.42;20.85;;;;;;;;;;4996834;28;92873;-75
2022/03/20 14:56:18;;;;;;;30.63;21.73;;;;;;;;;;4995400;28;93552;-76
2022/03/20 14:58:47;;;;;;;27.73;21.00;;;;;;;;;;4999230;28;92939;-74
2022/03/20 15:01:16;;;;;;;32.85;24.05;;;;;;;;;;4996263;28;91532;-74
2022/03/20 15:03:44;;;;;;;32.60;24.55;;;;;;;;;;4994408;28;92957;-75
2022/03/20 15:06:11;;;;;;;34.83;25.65;;;;;;;;;;4995278;28;94466;-74
2022/03/20 15:11:30;;;;;;;38.10;27.02;;;;;;;;;;4995699;28;92721;-74
2022/03/20 15:13:57;;;;;;;41.58;27.70;;;;;;;;;;4994961;28;93455;-73
2022/03/20 15:16:25;;;;;;;37.53;28.95;;;;;;;;;;4995621;28;93719;-75
2022/03/20 15:18:53;;;;;;;38.47;28.60;;;;;;;;;;4995518;28;92379;-75
2022/03/20 15:21:20;;;;;;;42.05;28.95;;;;;;;;;;4997777;28;93338;-74
2022/03/20 15:23:47;;;;;;;41.15;29.15;;;;;;;;;;4995521;28;92536;-74
2022/03/20 15:26:13;;;;;;;38.80;27.58;;;;;;;;;;4994772;28;94897;-76